createdAt,value
2019-03-22T00:01:25.417Z,102740.49
2019-03-22T00:03:54.455Z,102740.49
2019-03-22T00:06:23.421Z,102748.89
2019-03-22T00:08:51.982Z,102743.19
2019-03-22T00:11:23.426Z,102733.17
2019-03-22T00:13:54.713Z,102733.17
2019-03-22T00:16:23.705Z,102736.73
2019-03-22T00:18:55.433Z,102736.73
2019-03-22T00:21:24.085Z,102731.67
2019-03-22T00:23:52.643Z,102731.67
2019-03-22T00:26:23.891Z,102723.56
2019-03-22T00:28:52.480Z,102735.11
2019-03-22T00:31:23.982Z,102736.73
2019-03-22T00:33:55.558Z,102728.72
2019-03-22T00:36:24.147Z,102728.72
2019-03-22T00:38:55.746Z,102728.45
2019-03-22T00:41:27.054Z,102738.03
2019-03-22T00:43:58.276Z,102738.03
2019-03-22T00:46:29.861Z,102745.52
2019-03-22T00:49:03.413Z,102743.30
2019-03-22T00:51:35.018Z,102743.30
2019-03-22T00:54:03.588Z,102737.33
2019-03-22T00:56:32.173Z,102729.20
2019-03-22T00:59:00.738Z,102739.10
2019-03-22T01:01:29.318Z,102738.89
2019-03-22T01:03:57.880Z,102738.89
2019-03-22T01:06:28.661Z,102741.03
2019-03-22T01:08:57.081Z,102732.44
2019-03-22T01:11:28.393Z,102722.63
2019-03-22T01:13:56.953Z,102728.67
2019-03-22T01:16:25.541Z,102728.67
2019-03-22T01:18:54.101Z,102738.83
2019-03-22T01:21:22.693Z,102731.95
2019-03-22T01:23:52.794Z,102730.70
2019-03-22T01:26:21.383Z,102728.64
2019-03-22T01:28:50.161Z,102719.52
2019-03-22T01:31:18.784Z,102719.52
2019-03-22T01:33:50.440Z,102712.66
2019-03-22T01:36:19.345Z,102719.05
2019-03-22T01:38:50.962Z,102719.05
2019-03-22T01:41:22.694Z,102726.17
2019-03-22T01:43:54.023Z,102724.78
2019-03-22T01:46:22.614Z,102718.70
2019-03-22T01:48:51.495Z,102714.83
2019-03-22T01:51:23.043Z,102711.05
2019-03-22T01:53:51.934Z,102711.05
2019-03-22T01:56:20.522Z,102708.50
2019-03-22T01:58:49.428Z,102711.95
2019-03-22T02:01:20.990Z,102717.02
2019-03-22T02:03:49.546Z,102717.02
2019-03-22T02:06:18.130Z,102706.42
2019-03-22T02:08:46.693Z,102708.54
2019-03-22T02:11:20.465Z,102710.12
2019-03-22T02:13:49.050Z,102706.81
2019-03-22T02:16:20.812Z,102706.81
2019-03-22T02:18:52.657Z,102684.65
2019-03-22T02:21:21.251Z,102698.19
2019-03-22T02:23:52.665Z,102696.50
2019-03-22T02:26:23.940Z,102705.45
2019-03-22T02:28:52.952Z,102707.97
2019-03-22T02:31:21.607Z,102698.19
2019-03-22T02:33:50.627Z,102704.73
2019-03-22T02:36:19.222Z,102702.27
2019-03-22T02:38:50.538Z,102709.59
2019-03-22T02:41:19.139Z,102710.80
2019-03-22T02:43:54.844Z,102718.53
2019-03-22T02:46:23.631Z,102720.72
2019-03-22T02:48:55.355Z,102726.76
2019-03-22T02:51:23.966Z,102722.48
2019-03-22T02:53:52.502Z,102723.41
2019-03-22T02:56:21.100Z,102720.97
2019-03-22T02:58:52.612Z,102725.73
2019-03-22T03:01:21.465Z,102729.16
2019-03-22T03:03:50.049Z,102735.14
2019-03-22T03:06:18.629Z,102724.36
2019-03-22T03:08:49.940Z,102721.47
2019-03-22T03:11:21.460Z,102727.14
2019-03-22T03:13:52.815Z,102721.55
2019-03-22T03:16:24.334Z,102726.67
2019-03-22T03:18:55.093Z,102726.77
2019-03-22T03:21:23.663Z,102727.52
2019-03-22T03:23:52.285Z,102733.91
2019-03-22T03:26:20.850Z,102738.20
2019-03-22T03:28:52.404Z,102741.16
2019-03-22T03:31:20.999Z,102746.91
2019-03-22T03:33:49.627Z,102754.27
2019-03-22T03:36:18.210Z,102763.38
2019-03-22T03:38:47.108Z,102759.13
2019-03-22T03:41:15.670Z,102760.89
2019-03-22T03:43:44.251Z,102756.58
2019-03-22T03:46:15.481Z,102766.44
2019-03-22T03:48:47.211Z,102768.16
2019-03-22T03:51:18.467Z,102770.76
2019-03-22T03:53:47.157Z,102770.73
2019-03-22T03:56:15.678Z,102768.59
2019-03-22T03:58:52.748Z,102769.44
2019-03-22T04:01:17.489Z,102770.34
2019-03-22T04:03:46.081Z,102766.41
2019-03-22T04:06:14.642Z,102766.03
2019-03-22T04:08:51.876Z,102761.74
2019-03-22T04:11:20.431Z,102763.49
2019-03-22T04:13:51.787Z,102769.00
2019-03-22T04:16:23.483Z,102766.01
2019-03-22T04:18:52.067Z,102765.63
2019-03-22T04:21:20.755Z,102773.75
2019-03-22T04:23:49.346Z,102773.88
2019-03-22T04:26:17.905Z,102776.39
2019-03-22T04:28:46.842Z,102774.72
2019-03-22T04:31:19.514Z,102777.36
2019-03-22T04:33:50.932Z,102775.26
2019-03-22T04:36:19.506Z,102774.78
2019-03-22T04:38:48.087Z,102779.51
2019-03-22T04:41:16.647Z,102780.40
2019-03-22T04:43:47.921Z,102779.08
2019-03-22T04:46:18.014Z,102777.88
2019-03-22T04:48:51.092Z,102781.33
2019-03-22T04:51:19.801Z,102795.19
2019-03-22T04:53:51.738Z,102801.70
2019-03-22T04:56:22.134Z,102795.68
2019-03-22T04:58:52.071Z,102797.79
2019-03-22T05:01:22.883Z,102799.05
2019-03-22T05:03:52.500Z,102795.17
2019-03-22T05:06:22.593Z,102790.84
2019-03-22T05:08:52.320Z,102799.87
2019-03-22T05:11:24.825Z,102805.08
2019-03-22T05:13:56.809Z,102805.12
2019-03-22T05:16:29.934Z,102796.48
2019-03-22T05:19:04.796Z,102799.14
2019-03-22T05:21:35.119Z,102806.00
2019-03-22T05:24:05.457Z,102822.34
2019-03-22T05:26:37.515Z,102827.50
2019-03-22T05:29:11.651Z,102812.88
2019-03-22T05:31:43.269Z,102814.62
2019-03-22T05:34:15.119Z,102816.00
2019-03-22T05:36:43.692Z,102814.69
2019-03-22T05:39:15.031Z,102812.08
2019-03-22T05:41:49.522Z,102821.54
2019-03-22T05:44:18.468Z,102818.94
2019-03-22T05:46:50.053Z,102825.91
2019-03-22T05:49:18.740Z,102826.40
2019-03-22T05:51:50.523Z,102825.11
2019-03-22T05:54:24.551Z,102823.39
2019-03-22T05:56:53.189Z,102821.70
2019-03-22T05:59:24.517Z,102826.91
2019-03-22T06:01:56.198Z,102827.77
2019-03-22T06:04:24.773Z,102825.17
2019-03-22T06:06:53.778Z,102826.42
2019-03-22T06:09:25.670Z,102826.89
2019-03-22T06:11:55.089Z,102831.24
2019-03-22T06:14:24.042Z,102833.00
2019-03-22T06:16:55.518Z,102841.64
2019-03-22T06:19:24.081Z,102830.82
2019-03-22T06:21:55.899Z,102837.31
2019-03-22T06:24:29.140Z,102837.25
2019-03-22T06:26:57.721Z,102838.12
2019-03-22T06:29:26.727Z,102848.03
2019-03-22T06:31:58.650Z,102848.47
2019-03-22T06:34:27.275Z,102848.05
2019-03-22T06:36:55.861Z,102852.87
2019-03-22T06:39:27.489Z,102854.56
2019-03-22T06:41:59.036Z,102859.33
2019-03-22T06:44:30.697Z,102875.31
2019-03-22T06:46:59.268Z,102869.24
2019-03-22T06:49:31.348Z,102874.05
2019-03-22T06:52:01.924Z,102871.55
2019-03-22T06:54:31.793Z,102870.65
2019-03-22T06:57:00.747Z,102876.72
2019-03-22T06:59:29.310Z,102877.61
2019-03-22T07:01:57.888Z,102875.02
2019-03-22T07:04:26.443Z,102871.97
2019-03-22T07:06:57.886Z,102875.88
2019-03-22T07:09:26.853Z,102877.59
2019-03-22T07:11:58.152Z,102882.78
2019-03-22T07:14:26.717Z,102882.34
2019-03-22T07:16:55.299Z,102888.82
2019-03-22T07:19:23.864Z,102895.33
2019-03-22T07:21:55.418Z,102885.80
2019-03-22T07:24:23.980Z,102888.39
2019-03-22T07:26:52.577Z,102890.14
2019-03-22T07:29:21.141Z,102886.69
2019-03-22T07:31:50.779Z,102881.94
2019-03-22T07:34:22.145Z,102887.99
2019-03-22T07:36:56.740Z,102886.67
2019-03-22T07:39:25.452Z,102890.20
2019-03-22T07:41:54.391Z,102883.23
2019-03-22T07:44:25.717Z,102882.41
2019-03-22T07:46:57.469Z,102882.86
2019-03-22T07:49:30.197Z,102886.74
2019-03-22T07:52:01.941Z,102880.67
2019-03-22T07:54:30.503Z,102887.59
2019-03-22T07:56:59.090Z,102895.41
2019-03-22T07:59:30.626Z,102894.05
2019-03-22T08:02:02.152Z,102888.02
2019-03-22T08:04:30.763Z,102899.72
2019-03-22T08:07:02.363Z,102903.18
2019-03-22T08:09:30.906Z,102894.94
2019-03-22T08:11:59.732Z,102888.88
2019-03-22T08:14:28.287Z,102891.48
2019-03-22T08:17:08.726Z,102897.98
2019-03-22T08:19:41.051Z,102892.31
2019-03-22T08:22:09.637Z,102890.11
2019-03-22T08:24:38.715Z,102880.98
2019-03-22T08:27:13.840Z,102882.73
2019-03-22T08:29:44.941Z,102884.45
2019-03-22T08:32:14.350Z,102883.14
2019-03-22T08:34:47.633Z,102880.13
2019-03-22T08:37:15.811Z,102887.50
2019-03-22T08:39:44.416Z,102885.80
2019-03-22T08:42:14.527Z,102889.24
2019-03-22T08:44:48.820Z,102880.98
2019-03-22T08:47:32.810Z,102875.31
2019-03-22T08:49:58.029Z,102879.63
2019-03-22T08:52:29.639Z,102888.30
2019-03-22T08:54:58.224Z,102883.45
2019-03-22T08:57:29.583Z,102887.86
2019-03-22T09:00:03.031Z,102888.28
2019-03-22T09:02:56.540Z,102890.86
2019-03-22T09:05:28.277Z,102891.32
2019-03-22T09:10:46.821Z,102881.75
2019-03-22T09:13:45.356Z,102887.75
2019-03-22T09:16:17.298Z,102892.55
2019-03-22T09:18:48.909Z,102888.66
2019-03-22T09:21:17.439Z,102886.03
2019-03-22T09:23:46.103Z,102883.05
2019-03-22T09:26:20.003Z,102886.54
2019-03-22T09:28:48.239Z,102879.13
2019-03-22T09:31:16.888Z,102868.31
2019-03-22T09:33:51.429Z,102863.60
2019-03-22T09:36:22.740Z,102860.58
2019-03-22T09:38:54.236Z,102867.44
2019-03-22T09:41:22.774Z,102863.58
2019-03-22T09:43:51.362Z,102859.22
2019-03-22T09:46:19.937Z,102853.57
2019-03-22T09:48:48.513Z,102857.94
2019-03-22T09:51:19.871Z,102860.08
2019-03-22T09:53:51.498Z,102868.67
2019-03-22T09:56:20.137Z,102869.49
2019-03-22T09:58:48.738Z,102867.37
2019-03-22T10:01:23.849Z,102868.55
2019-03-22T10:03:53.577Z,102864.33
2019-03-22T10:06:28.597Z,102874.63
2019-03-22T10:09:08.884Z,102872.49
2019-03-22T10:11:40.488Z,102877.70
2019-03-22T10:14:13.840Z,102871.19
2019-03-22T10:16:47.459Z,102874.62
2019-03-22T10:19:24.669Z,102872.40
2019-03-22T10:21:59.328Z,102875.41
2019-03-22T10:27:13.678Z,102864.11
2019-03-22T10:32:44.153Z,102871.61
2019-03-22T10:35:25.547Z,102872.11
2019-03-22T10:37:46.598Z,102879.42
2019-03-22T10:40:15.317Z,102878.23
2019-03-22T10:42:43.943Z,102872.92
2019-03-22T10:45:15.156Z,102874.22
2019-03-22T10:47:43.753Z,102870.80
2019-03-22T10:50:13.937Z,102871.20
2019-03-22T10:52:42.550Z,102862.33
2019-03-22T10:55:29.264Z,102859.28
2019-03-22T10:57:47.612Z,102858.38
2019-03-22T11:00:18.005Z,102860.91
2019-03-22T11:02:46.743Z,102850.25
2019-03-22T11:05:18.352Z,102849.73
2019-03-22T11:07:46.910Z,102845.79
2019-03-22T11:10:18.298Z,102842.80
2019-03-22T11:12:46.867Z,102837.69
2019-03-22T11:15:16.301Z,102836.86
2019-03-22T11:17:44.947Z,102838.95
2019-03-22T11:20:16.324Z,102843.75
2019-03-22T11:22:47.958Z,102838.47
2019-03-22T11:25:16.699Z,102838.55
2019-03-22T11:27:47.394Z,102824.92
2019-03-22T11:30:18.647Z,102829.25
2019-03-22T11:32:47.386Z,102819.70
2019-03-22T11:35:16.502Z,102818.13
2019-03-22T11:37:45.061Z,102808.51
2019-03-22T11:40:15.799Z,102800.88
2019-03-22T11:42:44.362Z,102796.41
2019-03-22T11:45:21.118Z,102803.08
2019-03-22T11:47:49.743Z,102789.43
2019-03-22T11:50:21.014Z,102786.05
2019-03-22T11:52:49.981Z,102783.80
2019-03-22T11:55:18.688Z,102781.05
2019-03-22T11:57:48.079Z,102779.81
2019-03-22T12:00:24.691Z,102776.14
2019-03-22T12:02:53.352Z,102770.14
2019-03-22T12:05:22.925Z,102766.27
2019-03-22T12:07:51.804Z,102762.41
2019-03-22T12:10:23.646Z,102760.95
2019-03-22T12:12:55.656Z,102768.75
2019-03-22T12:15:27.024Z,102762.81
2019-03-22T12:17:55.616Z,102764.91
2019-03-22T12:20:26.937Z,102760.52
2019-03-22T12:22:55.530Z,102760.20
2019-03-22T12:25:25.742Z,102755.95
2019-03-22T12:27:54.320Z,102753.88
2019-03-22T12:30:26.176Z,102749.34
2019-03-22T12:32:54.769Z,102751.86
2019-03-22T12:35:23.326Z,102755.53
2019-03-22T12:37:51.907Z,102753.33
2019-03-22T12:40:24.014Z,102750.09
2019-03-22T12:42:56.656Z,102745.64
2019-03-22T12:45:32.738Z,102737.33
2019-03-22T12:48:01.337Z,102736.06
2019-03-22T12:50:35.508Z,102732.07
2019-03-22T12:53:07.062Z,102737.39
2019-03-22T12:55:38.820Z,102734.27
2019-03-22T12:58:07.405Z,102724.94
2019-03-22T13:00:36.046Z,102729.75
2019-03-22T13:03:05.063Z,102724.94
2019-03-22T13:05:33.801Z,102729.19
2019-03-22T13:08:03.496Z,102727.14
2019-03-22T13:10:32.226Z,102723.80
2019-03-22T13:13:03.924Z,102721.51
2019-03-22T13:15:32.878Z,102723.05
2019-03-22T13:18:04.711Z,102713.59
2019-03-22T13:20:33.278Z,102715.11
2019-03-22T13:26:09.279Z,102705.53
2019-03-22T13:28:41.883Z,102706.16
2019-03-22T13:31:12.996Z,102707.42
2019-03-22T13:33:42.188Z,102704.18
2019-03-22T13:36:13.915Z,102692.95
2019-03-22T13:38:45.504Z,102684.80
2019-03-22T13:41:14.228Z,102684.92
2019-03-22T13:43:45.532Z,102679.70
2019-03-22T13:46:14.095Z,102676.33
2019-03-22T13:48:45.851Z,102673.44
2019-03-22T13:51:17.526Z,102668.16
2019-03-22T13:53:46.120Z,102669.21
2019-03-22T13:56:14.680Z,102668.62
2019-03-22T13:58:49.229Z,102664.73
2019-03-22T14:01:17.797Z,102668.09
2019-03-22T14:03:49.308Z,102659.95
2019-03-22T14:06:21.114Z,102656.18
2019-03-22T14:08:50.098Z,102659.31
2019-03-22T14:11:36.118Z,102652.62
2019-03-22T14:17:05.343Z,102640.86
2019-03-22T14:19:36.908Z,102635.50
2019-03-22T14:22:08.471Z,102635.27
2019-03-22T14:24:41.382Z,102631.56
2019-03-22T14:27:09.889Z,102630.32
2019-03-22T14:29:41.544Z,102627.66
2019-03-22T14:32:12.220Z,102628.05
2019-03-22T14:34:46.670Z,102635.29
2019-03-22T14:37:18.213Z,102631.61
2019-03-22T14:39:49.656Z,102635.53
2019-03-22T14:42:18.223Z,102629.32
2019-03-22T14:44:50.243Z,102628.48
2019-03-22T14:47:21.756Z,102623.52
2019-03-22T14:49:50.344Z,102617.06
2019-03-22T14:52:21.573Z,102622.41
2019-03-22T14:54:52.906Z,102621.95
2019-03-22T14:57:24.202Z,102610.70
2019-03-22T14:59:58.938Z,102600.84
2019-03-22T15:02:25.809Z,102599.36
2019-03-22T15:04:57.773Z,102602.77
2019-03-22T15:07:29.357Z,102599.10
2019-03-22T15:09:58.022Z,102596.30
2019-03-22T15:12:29.363Z,102590.64
2019-03-22T15:15:05.357Z,102589.80
2019-03-22T15:17:47.300Z,102580.78
2019-03-22T15:20:38.837Z,102579.05
2019-03-22T15:23:13.485Z,102580.81
2019-03-22T15:26:04.236Z,102581.86
2019-03-22T15:28:54.998Z,102584.62
2019-03-22T15:31:44.163Z,102579.38
2019-03-22T15:34:22.881Z,102578.63
2019-03-22T15:37:04.760Z,102565.19
2019-03-22T15:39:38.067Z,102562.80
2019-03-22T15:42:06.792Z,102563.23
2019-03-22T15:44:35.387Z,102554.72
2019-03-22T15:47:07.305Z,102555.97
2019-03-22T15:49:35.861Z,102543.52
2019-03-22T15:52:04.529Z,102551.27
2019-03-22T15:54:33.079Z,102551.58
2019-03-22T15:57:01.764Z,102543.23
2019-03-22T15:59:32.995Z,102543.67
2019-03-22T16:02:01.652Z,102541.25
2019-03-22T16:04:32.902Z,102537.98
2019-03-22T16:07:04.887Z,102535.82
2019-03-22T16:09:33.826Z,102541.96
2019-03-22T16:12:02.497Z,102542.47
2019-03-22T16:14:31.125Z,102546.90
2019-03-22T16:17:00.135Z,102545.46
2019-03-22T16:19:28.693Z,102546.72
2019-03-22T16:22:00.510Z,102549.38
2019-03-22T16:24:29.065Z,102558.91
2019-03-22T16:26:57.653Z,102554.02
2019-03-22T16:29:28.957Z,102551.37
2019-03-22T16:31:58.365Z,102555.72
2019-03-22T16:34:35.894Z,102556.27
2019-03-22T16:37:05.023Z,102559.48
2019-03-22T16:39:36.291Z,102556.56
2019-03-22T16:42:05.023Z,102549.53
2019-03-22T16:44:36.260Z,102555.81
2019-03-22T16:47:07.646Z,102543.73
2019-03-22T16:49:36.214Z,102546.83
2019-03-22T16:52:07.858Z,102548.20
2019-03-22T16:54:39.131Z,102545.31
2019-03-22T16:57:07.719Z,102547.66
2019-03-22T16:59:39.214Z,102544.29
2019-03-22T17:02:07.939Z,102540.95
2019-03-22T17:04:39.570Z,102541.06
2019-03-22T17:07:08.741Z,102531.14
2019-03-22T17:09:40.297Z,102538.27
2019-03-22T17:12:11.526Z,102530.95
2019-03-22T17:14:42.810Z,102528.48
2019-03-22T17:17:14.089Z,102524.72
2019-03-22T17:19:42.649Z,102520.94
2019-03-22T17:22:13.909Z,102522.33
2019-03-22T17:24:45.208Z,102521.63
2019-03-22T17:27:16.628Z,102528.58
2019-03-22T17:29:47.922Z,102529.50
2019-03-22T17:32:16.907Z,102524.00
2019-03-22T17:34:48.633Z,102523.19
2019-03-22T17:37:17.251Z,102522.41
2019-03-22T17:39:45.824Z,102519.45
2019-03-22T17:42:17.235Z,102516.41
2019-03-22T17:44:48.500Z,102518.23
2019-03-22T17:47:20.186Z,102517.85
2019-03-22T17:49:51.492Z,102521.77
2019-03-22T17:52:20.069Z,102520.06
2019-03-22T17:54:48.626Z,102518.81
2019-03-22T17:57:18.898Z,102515.38
2019-03-22T17:59:50.661Z,102519.33
2019-03-22T18:02:24.844Z,102523.23
2019-03-22T18:04:56.780Z,102522.80
2019-03-22T18:07:28.017Z,102515.47
2019-03-22T18:10:02.968Z,102521.98
2019-03-22T18:12:34.723Z,102519.88
2019-03-22T18:15:04.048Z,102520.72
2019-03-22T18:17:32.605Z,102518.56
2019-03-22T18:20:01.179Z,102518.59
2019-03-22T18:22:30.509Z,102522.06
2019-03-22T18:24:59.205Z,102525.55
2019-03-22T18:27:30.702Z,102526.39
2019-03-22T18:30:02.083Z,102516.47
2019-03-22T18:32:30.644Z,102519.06
2019-03-22T18:34:59.253Z,102515.62
2019-03-22T18:37:27.820Z,102510.42
2019-03-22T18:39:58.032Z,102506.53
2019-03-22T18:42:26.594Z,102513.02
2019-03-22T18:44:55.185Z,102504.37
2019-03-22T18:47:23.745Z,102505.70
2019-03-22T18:49:55.326Z,102499.20
2019-03-22T18:52:26.906Z,102505.27
2019-03-22T18:55:14.827Z,102503.55
2019-03-22T18:57:46.213Z,102502.26
2019-03-22T19:00:17.276Z,102501.37
2019-03-22T19:02:45.839Z,102504.84
2019-03-22T19:05:17.456Z,102498.37
2019-03-22T19:07:48.794Z,102488.00
2019-03-22T19:10:20.377Z,102493.59
2019-03-22T19:12:50.004Z,102489.74
2019-03-22T19:15:21.508Z,102488.03
2019-03-22T19:17:53.017Z,102485.84
2019-03-22T19:20:22.027Z,102481.55
2019-03-22T19:22:59.489Z,102490.19
2019-03-22T19:25:31.015Z,102487.59
2019-03-22T19:28:02.510Z,102489.75
2019-03-22T19:30:34.284Z,102478.08
2019-03-22T19:33:02.865Z,102473.33
2019-03-22T19:35:35.751Z,102464.68
2019-03-22T19:38:05.315Z,102465.98
2019-03-22T19:40:35.426Z,102472.89
2019-03-22T19:43:06.538Z,102472.45
2019-03-22T19:45:47.230Z,102470.72
2019-03-22T19:48:15.889Z,102475.47
2019-03-22T19:53:47.703Z,102468.13
2019-03-22T19:56:25.573Z,102456.45
2019-03-22T19:59:03.261Z,102462.92
2019-03-22T20:01:35.178Z,102462.48
2019-03-22T20:04:23.110Z,102471.09
2019-03-22T20:06:54.351Z,102462.45
2019-03-22T20:09:25.943Z,102459.86
2019-03-22T20:11:57.488Z,102464.17
2019-03-22T20:14:29.132Z,102457.29
2019-03-22T20:17:03.439Z,102455.55
2019-03-22T20:19:32.812Z,102459.00
2019-03-22T20:22:06.070Z,102456.45
2019-03-22T20:24:37.420Z,102451.67
2019-03-22T20:27:09.246Z,102452.12
2019-03-22T20:29:43.883Z,102450.83
2019-03-22T20:32:15.893Z,102442.20
2019-03-22T20:34:47.208Z,102443.92
2019-03-22T20:37:15.806Z,102438.77
2019-03-22T20:39:47.285Z,102437.91
2019-03-22T20:42:18.858Z,102445.23
2019-03-22T20:44:47.426Z,102444.80
2019-03-22T20:47:19.107Z,102442.66
2019-03-22T20:49:50.468Z,102435.73
2019-03-22T20:52:22.188Z,102436.14
2019-03-22T20:54:53.831Z,102428.41
2019-03-22T20:57:28.313Z,102428.40
2019-03-22T20:59:56.888Z,102434.02
2019-03-22T21:02:28.214Z,102438.33
2019-03-22T21:04:56.782Z,102424.96
2019-03-22T21:07:25.389Z,102424.09
2019-03-22T21:09:54.388Z,102419.32
2019-03-22T21:12:22.936Z,102417.59
2019-03-22T21:14:54.973Z,102423.19
2019-03-22T21:17:26.646Z,102417.55
2019-03-22T21:19:55.578Z,102424.45
2019-03-22T21:22:26.869Z,102418.88
2019-03-22T21:24:58.550Z,102427.91
2019-03-22T21:27:30.535Z,102422.27
2019-03-22T21:29:59.109Z,102419.66
2019-03-22T21:32:28.044Z,102398.05
2019-03-22T21:34:59.516Z,102398.05
2019-03-22T21:37:34.185Z,102412.26
2019-03-22T21:40:07.562Z,102414.84
2019-03-22T21:42:39.190Z,102414.84
2019-03-22T21:45:09.046Z,102410.08
2019-03-22T21:47:43.816Z,102406.18
2019-03-22T21:50:16.087Z,102409.19
2019-03-22T21:52:47.461Z,102410.89
2019-03-22T21:55:19.072Z,102407.08
2019-03-22T21:57:47.671Z,102403.61
2019-03-22T22:00:16.480Z,102406.19
2019-03-22T22:02:45.078Z,102403.15
2019-03-22T22:05:13.633Z,102391.98
2019-03-22T22:07:44.101Z,102389.81
2019-03-22T22:10:15.482Z,102388.10
2019-03-22T22:12:44.081Z,102380.77
2019-03-22T22:15:15.666Z,102383.31
2019-03-22T22:17:44.630Z,102375.17
2019-03-22T22:20:16.102Z,102368.64
2019-03-22T22:22:44.693Z,102363.06
2019-03-22T22:25:16.591Z,102356.16
2019-03-22T22:27:45.514Z,102355.30
2019-03-22T22:30:14.209Z,102351.87
2019-03-22T22:32:43.136Z,102355.73
2019-03-22T22:35:11.776Z,102348.37
2019-03-22T22:37:40.371Z,102348.37
2019-03-22T22:40:13.529Z,102342.32
2019-03-22T22:42:42.535Z,102342.32
2019-03-22T22:45:26.008Z,102330.25
2019-03-22T22:47:54.603Z,102339.72
2019-03-22T22:50:23.169Z,102322.89
2019-03-22T22:52:51.755Z,102322.89
2019-03-22T22:55:20.336Z,102316.84
2019-03-22T22:57:48.933Z,102309.09
2019-03-22T23:00:18.542Z,102309.09
2019-03-22T23:02:47.137Z,102313.80
2019-03-22T23:05:15.698Z,102309.48
2019-03-22T23:07:44.296Z,102305.22
2019-03-22T23:10:12.997Z,102306.05
2019-03-22T23:12:44.583Z,102288.76
2019-03-22T23:15:14.759Z,102288.76
2019-03-22T23:17:46.095Z,102288.76
2019-03-22T23:20:14.657Z,102288.76
2019-03-22T23:22:46.257Z,102286.61
2019-03-22T23:25:14.814Z,102289.19
2019-03-22T23:27:43.403Z,102271.11
2019-03-22T23:30:13.109Z,102277.55
2019-03-22T23:32:44.929Z,102274.52
2019-03-22T23:35:13.567Z,102274.52
2019-03-22T23:37:43.648Z,102277.95
2019-03-22T23:40:13.747Z,102274.92
2019-03-22T23:42:43.823Z,102274.04
2019-03-22T23:45:15.939Z,102263.77
2019-03-22T23:47:44.844Z,102255.58
2019-03-22T23:50:13.702Z,102259.86
2019-03-22T23:52:43.786Z,102253.83
2019-03-22T23:55:12.537Z,102253.83
2019-03-22T23:57:42.841Z,102251.63
